Time;durP1;ratioP1;P1;durP2;ratioP2;P2;SDS_P1;SDS_P2;PMS_P1;PMS_P2;Temp;Humidity;BMP_temperature;BMP_pressure;BME280_temperature;BME280_humidity;BME280_pressure;Samples;Min_cycle;Max_cycle;Signal;HPM_P1;HPM_P2
2021/12/15 00:01:25;;;;;;;55.10;22.10;;;9.90;99.90;;;;;;5070397;28;20107;-82
2021/12/15 00:03:51;;;;;;;57.38;21.05;;;9.90;99.90;;;;;;5069597;28;20483;-82
2021/12/15 00:06:18;;;;;;;58.60;23.23;;;9.90;99.90;;;;;;5070345;28;20072;-82
2021/12/15 00:08:48;;;;;;;60.08;21.98;;;9.90;99.90;;;;;;5070148;28;20040;-82
2021/12/15 00:11:15;;;;;;;55.60;22.98;;;9.90;99.90;;;;;;5069790;28;20032;-82
2021/12/15 00:13:41;;;;;;;58.88;21.13;;;9.90;99.90;;;;;;5069942;28;20128;-82
2021/12/15 00:16:10;;;;;;;57.40;22.10;;;9.90;99.90;;;;;;5050933;28;20081;-82
2021/12/15 00:18:36;;;;;;;57.90;21.13;;;9.90;99.90;;;;;;5051339;28;20085;-81
2021/12/15 00:21:03;;;;;;;58.38;21.30;;;10.00;99.90;;;;;;5050492;28;20032;-82
2021/12/15 00:23:30;;;;;;;57.13;21.10;;;9.90;99.90;;;;;;5053187;28;20040;-82
2021/12/15 00:25:56;;;;;;;57.22;22.52;;;9.90;99.90;;;;;;5069503;28;20141;-82
2021/12/15 00:28:21;;;;;;;57.50;22.25;;;10.10;99.90;;;;;;5053156;28;20037;-82
2021/12/15 00:30:48;;;;;;;59.90;22.35;;;9.70;99.90;;;;;;5036719;28;20052;-82
2021/12/15 00:33:13;;;;;;;51.38;21.10;;;10.00;99.90;;;;;;5069542;28;20044;-82
2021/12/15 00:35:40;;;;;;;50.33;20.35;;;9.90;99.90;;;;;;5070041;28;20043;-82
2021/12/15 00:38:07;;;;;;;57.78;22.00;;;10.00;99.90;;;;;;5052102;28;20033;-82
2021/12/15 00:40:33;;;;;;;61.13;21.08;;;10.00;99.90;;;;;;5053291;28;20119;-82
2021/12/15 00:42:59;;;;;;;56.53;20.42;;;10.10;99.90;;;;;;5069320;28;20028;-82
2021/12/15 00:45:26;;;;;;;55.00;21.70;;;9.90;99.90;;;;;;5052423;28;20048;-82
2021/12/15 00:47:53;;;;;;;59.50;21.13;;;9.90;99.90;;;;;;5067361;28;20036;-81
2021/12/15 00:50:21;;;;;;;48.28;19.75;;;10.00;99.90;;;;;;5051281;28;20036;-82
2021/12/15 00:52:48;;;;;;;50.28;20.75;;;10.00;99.90;;;;;;5054769;28;20051;-82
2021/12/15 00:55:18;;;;;;;50.90;20.00;;;10.00;99.90;;;;;;5056530;28;20112;-82
2021/12/15 00:57:45;;;;;;;55.67;20.58;;;10.00;99.90;;;;;;5057478;28;20047;-82
2021/12/15 01:00:23;;;;;;;59.25;23.23;;;10.00;99.90;;;;;;5056619;28;20127;-81
2021/12/15 01:02:50;;;;;;;51.83;21.70;;;9.90;99.90;;;;;;5071846;28;20040;-82
2021/12/15 01:05:18;;;;;;;55.88;21.33;;;10.00;99.90;;;;;;5057045;28;20484;-82
2021/12/15 01:07:44;;;;;;;56.38;20.90;;;10.00;99.90;;;;;;5057060;28;20151;-82
2021/12/15 01:10:14;;;;;;;46.90;20.65;;;10.00;99.90;;;;;;5072936;28;20044;-82
2021/12/15 01:20:55;;;;;;;56.15;20.65;;;10.00;99.90;;;;;;5072528;28;20040;-79
2021/12/15 01:23:24;;;;;;;52.58;20.75;;;10.00;99.90;;;;;;5073562;28;20385;-79
2021/12/15 01:26:12;;;;;;;49.15;21.02;;;10.00;99.90;;;;;;5056724;28;20083;-79
2021/12/15 01:28:39;;;;;;;51.25;21.45;;;10.10;99.90;;;;;;5054007;28;20562;-82
2021/12/15 01:31:06;;;;;;;;;;;10.10;99.90;;;;;;5072783;28;20036;-82
2021/12/15 01:33:33;;;;;;;52.23;20.03;;;10.00;99.90;;;;;;5073319;28;20011;-82
2021/12/15 01:36:00;;;;;;;51.92;20.73;;;10.10;99.90;;;;;;5072616;28;20279;-82
2021/12/15 01:38:29;;;;;;;54.17;21.45;;;10.00;99.90;;;;;;5056151;28;20032;-82
2021/12/15 01:40:55;;;;;;;54.22;20.13;;;10.10;99.90;;;;;;5055604;28;20040;-82
2021/12/15 01:43:35;;;;;;;;;;;10.10;99.90;;;;;;5040400;28;20037;-82
2021/12/15 01:48:58;;;;;;;62.53;23.52;;;10.10;99.90;;;;;;5056350;28;20181;-82
2021/12/15 01:51:24;;;;;;;48.78;20.38;;;10.10;99.90;;;;;;5072851;28;20068;-81
2021/12/15 01:53:50;;;;;;;56.03;22.50;;;10.00;99.90;;;;;;5072451;28;20079;-82
2021/12/15 01:56:16;;;;;;;51.13;22.27;;;10.10;99.90;;;;;;5072854;28;20055;-82
2021/12/15 01:58:42;;;;;;;57.08;22.73;;;10.10;99.90;;;;;;5055543;28;20036;-82
2021/12/15 02:01:09;;;;;;;52.80;22.70;;;10.20;99.90;;;;;;5038540;28;20035;-82
2021/12/15 02:03:37;;;;;;;58.17;22.92;;;10.10;99.90;;;;;;5055588;28;20071;-82
2021/12/15 02:06:05;;;;;;;53.15;21.70;;;10.10;99.90;;;;;;5055351;28;20037;-82
2021/12/15 02:08:32;;;;;;;62.10;23.25;;;10.10;99.90;;;;;;5069992;28;20062;-81
2021/12/15 02:10:58;;;;;;;56.83;24.50;;;10.10;99.90;;;;;;5054896;28;20037;-82
2021/12/15 02:13:24;;;;;;;56.03;22.80;;;10.10;99.90;;;;;;5055381;28;20198;-82
2021/12/15 02:15:54;;;;;;;51.35;22.20;;;10.10;99.90;;;;;;5072179;28;20120;-82
2021/12/15 02:18:24;;;;;;;60.63;23.08;;;10.10;99.90;;;;;;5070310;28;20130;-82
2021/12/15 02:21:16;;;;;;;63.17;23.52;;;10.10;99.90;;;;;;5071988;28;20040;-81
2021/12/15 02:23:48;;;;;;;53.42;21.77;;;10.10;99.90;;;;;;5105648;28;20043;-82
2021/12/15 02:26:22;;;;;;;67.13;23.90;;;10.10;99.90;;;;;;5053105;28;20403;-82
2021/12/15 02:28:51;;;;;;;64.90;23.83;;;10.10;99.90;;;;;;5055589;28;20423;-82
2021/12/15 02:31:54;;;;;;;55.10;22.45;;;10.10;99.90;;;;;;5055216;28;20146;-81
2021/12/15 02:37:20;;;;;;;63.72;23.65;;;10.10;99.90;;;;;;5072411;28;20055;-82
2021/12/15 02:39:53;;;;;;;53.47;23.15;;;10.10;99.90;;;;;;5072021;28;20051;-82
2021/12/15 02:42:42;;;;;;;54.95;22.77;;;10.10;99.90;;;;;;5054842;28;20032;-82
2021/12/15 02:45:11;;;;;;;65.35;23.40;;;10.20;99.90;;;;;;5068893;28;20044;-82
2021/12/15 02:47:37;;;;;;;55.83;23.92;;;10.10;99.90;;;;;;5055057;28;20041;-81
2021/12/15 02:50:05;;;;;;;;;;;10.10;99.90;;;;;;5054914;28;20492;-81
2021/12/15 02:52:31;;;;;;;57.55;23.95;;;10.10;99.90;;;;;;5054961;28;20376;-82
2021/12/15 02:54:57;;;;;;;58.78;22.85;;;10.10;99.90;;;;;;5055132;28;20032;-82
2021/12/15 02:57:23;;;;;;;62.77;23.93;;;10.10;99.90;;;;;;5054738;28;20032;-82
2021/12/15 03:00:46;;;;;;;57.78;24.13;;;10.20;99.90;;;;;;5054691;28;20745;-82
2021/12/15 03:05:40;;;;;;;57.58;23.88;;;10.10;99.90;;;;;;5057351;28;20041;-82
2021/12/15 03:08:11;;;;;;;;;;;10.10;99.90;;;;;;5056386;28;20036;-81
2021/12/15 03:16:11;;;;;;;55.95;24.63;;;10.20;99.90;;;;;;5070615;28;20075;-81
2021/12/15 03:18:36;;;;;;;;;;;10.20;99.90;;;;;;5055111;28;20500;-81
2021/12/15 03:21:11;;;;;;;63.55;23.60;;;10.10;99.90;;;;;;5070693;28;19923;-81
2021/12/15 03:23:53;;;;;;;54.13;23.23;;;10.20;99.90;;;;;;5070605;28;20040;-81
2021/12/15 03:26:25;;;;;;;60.42;24.52;;;10.30;99.90;;;;;;5069200;28;20435;-81
2021/12/15 03:34:41;;;;;;;60.97;25.40;;;10.50;99.90;;;;;;5056258;28;20049;-82
2021/12/15 03:37:30;;;;;;;57.78;23.90;;;10.20;99.90;;;;;;5053063;28;20127;-81
2021/12/15 03:40:16;;;;;;;59.20;25.75;;;10.20;99.90;;;;;;5070256;28;20059;-82
2021/12/15 03:42:55;;;;;;;61.60;25.20;;;10.20;99.90;;;;;;5068921;28;20082;-82
2021/12/15 03:45:29;;;;;;;52.10;24.75;;;10.20;99.90;;;;;;5051049;28;20036;-82
2021/12/15 03:47:59;;;;;;;62.97;25.88;;;10.20;99.90;;;;;;5070473;28;20071;-81
2021/12/15 03:50:29;;;;;;;59.85;26.27;;;10.20;99.90;;;;;;5070360;28;20041;-82
2021/12/15 03:52:55;;;;;;;63.20;26.10;;;10.20;99.90;;;;;;5070549;28;20068;-81
2021/12/15 03:55:29;;;;;;;59.65;25.83;;;10.10;99.90;;;;;;5070284;28;20068;-81
2021/12/15 03:57:55;;;;;;;57.92;25.70;;;10.10;99.90;;;;;;5070815;28;20044;-81
2021/12/15 04:00:23;;;;;;;60.45;26.58;;;10.20;99.90;;;;;;5053234;28;20542;-82
2021/12/15 04:02:50;;;;;;;59.28;26.02;;;10.20;99.90;;;;;;5070214;28;20450;-82
2021/12/15 04:05:19;;;;;;;58.10;25.30;;;10.40;99.90;;;;;;5053369;28;20396;-82
2021/12/15 04:07:46;;;;;;;51.28;23.13;;;10.20;99.90;;;;;;5070526;28;20443;-82
2021/12/15 04:10:15;;;;;;;60.97;26.00;;;10.20;99.90;;;;;;5036594;28;20484;-81
2021/12/15 04:12:42;;;;;;;55.50;24.80;;;10.20;99.90;;;;;;5069887;28;20044;-82
2021/12/15 04:17:54;;;;;;;58.55;25.70;;;10.30;99.90;;;;;;5055256;28;20415;-82
2021/12/15 04:20:23;;;;;;;56.65;25.13;;;10.20;99.90;;;;;;5053182;28;20129;-81
2021/12/15 04:22:49;;;;;;;56.17;24.67;;;10.20;99.90;;;;;;5053504;28;20041;-82
2021/12/15 04:25:20;;;;;;;56.97;24.60;;;10.20;99.90;;;;;;5053445;28;20445;-82
2021/12/15 04:27:57;;;;;;;60.67;24.85;;;10.30;99.90;;;;;;5067691;28;20361;-82
2021/12/15 04:30:24;;;;;;;57.13;23.17;;;10.20;99.90;;;;;;5069285;28;20040;-82
2021/12/15 04:32:50;;;;;;;57.50;23.73;;;10.20;99.90;;;;;;5036892;28;20097;-82
2021/12/15 04:35:16;;;;;;;55.92;22.73;;;10.20;99.90;;;;;;5052721;28;20036;-82
2021/12/15 04:37:44;;;;;;;50.40;22.23;;;10.20;99.90;;;;;;5053540;28;20082;-82
2021/12/15 04:40:12;;;;;;;57.42;24.33;;;10.20;99.90;;;;;;5053034;28;20093;-82
2021/12/15 04:42:39;;;;;;;54.75;23.75;;;10.10;99.90;;;;;;5053439;28;20037;-82
2021/12/15 04:45:07;;;;;;;57.58;23.85;;;10.00;99.90;;;;;;5069461;28;20079;-83
2021/12/15 04:47:33;;;;;;;58.25;25.20;;;10.10;99.90;;;;;;5069649;28;20095;-82
2021/12/15 04:49:59;;;;;;;61.33;23.67;;;10.10;99.90;;;;;;5069641;28;20119;-82
2021/12/15 04:52:28;;;;;;;53.40;21.80;;;10.20;99.90;;;;;;5069600;28;20036;-82
2021/12/15 04:54:56;;;;;;;53.78;23.70;;;10.20;99.90;;;;;;5052773;28;20102;-82
2021/12/15 04:57:22;;;;;;;59.08;23.98;;;10.10;99.90;;;;;;5052404;28;20036;-82
2021/12/15 04:59:48;;;;;;;;;;;10.10;99.90;;;;;;5070243;28;20116;-82
2021/12/15 05:02:17;;;;;;;57.88;22.50;;;10.10;99.90;;;;;;5051351;28;19935;-82
2021/12/15 05:04:44;;;;;;;60.30;23.83;;;10.10;99.90;;;;;;5052573;28;20176;-82
2021/12/15 05:07:11;;;;;;;55.15;23.33;;;10.10;99.90;;;;;;5052399;28;20082;-82
2021/12/15 05:09:40;;;;;;;55.72;22.52;;;10.10;99.90;;;;;;5052808;28;20119;-82
2021/12/15 05:12:07;;;;;;;52.78;24.23;;;10.00;99.90;;;;;;5053098;28;20117;-82
2021/12/15 05:14:33;;;;;;;59.35;24.13;;;10.10;99.90;;;;;;5052079;28;20527;-81
2021/12/15 05:16:59;;;;;;;60.00;24.23;;;10.10;99.90;;;;;;5069392;28;20049;-82
2021/12/15 05:19:27;;;;;;;64.63;25.20;;;10.10;99.90;;;;;;5036099;28;20094;-82
2021/12/15 05:21:56;;;;;;;58.78;22.90;;;10.10;99.90;;;;;;5070099;28;20503;-82
2021/12/15 05:24:31;;;;;;;65.47;24.30;;;10.10;99.90;;;;;;5050228;28;20068;-82
2021/12/15 05:27:14;;;;;;;58.05;24.58;;;10.10;99.90;;;;;;5037571;28;20033;-81
2021/12/15 05:29:42;;;;;;;60.92;24.83;;;10.10;99.90;;;;;;5052797;28;20277;-82
2021/12/15 05:32:09;;;;;;;57.50;23.83;;;10.10;99.90;;;;;;5052464;28;20036;-82
2021/12/15 05:34:36;;;;;;;59.08;23.90;;;10.00;99.90;;;;;;5053131;28;20032;-81
2021/12/15 05:37:03;;;;;;;60.65;24.20;;;10.10;99.90;;;;;;5069088;28;20028;-81
2021/12/15 05:39:29;;;;;;;58.58;23.65;;;10.00;99.90;;;;;;5072672;28;20037;-82
2021/12/15 05:41:55;;;;;;;53.03;23.08;;;10.10;99.90;;;;;;5073135;28;20033;-82
2021/12/15 05:44:23;;;;;;;62.53;24.38;;;10.70;99.90;;;;;;5055637;28;20036;-82
2021/12/15 05:46:50;;;;;;;63.15;23.58;;;10.10;99.90;;;;;;5072970;28;20067;-81
2021/12/15 05:49:16;;;;;;;60.72;24.52;;;10.00;99.90;;;;;;5072092;28;20040;-85
2021/12/15 05:51:41;;;;;;;57.38;22.20;;;10.40;99.90;;;;;;5055871;28;20408;-81
2021/12/15 05:54:09;;;;;;;55.45;22.67;;;10.10;99.90;;;;;;5072438;28;20119;-82
2021/12/15 05:56:35;;;;;;;55.53;24.75;;;10.00;99.90;;;;;;5055769;28;20090;-82
2021/12/15 05:59:02;;;;;;;50.78;21.75;;;10.00;99.90;;;;;;5072754;28;20033;-81
2021/12/15 06:01:28;;;;;;;63.67;23.58;;;10.40;99.90;;;;;;5072014;28;20037;-81
2021/12/15 06:03:55;;;;;;;53.35;22.40;;;10.10;99.90;;;;;;5055901;28;20075;-82
2021/12/15 06:06:20;;;;;;;;;;;10.10;99.90;;;;;;5039061;28;20547;-82
2021/12/15 06:08:46;;;;;;;59.28;23.48;;;10.10;99.90;;;;;;5072598;28;20015;-81
2021/12/15 06:11:12;;;;;;;59.47;23.90;;;10.10;99.90;;;;;;5039065;28;20044;-82
2021/12/15 06:13:38;;;;;;;56.80;23.77;;;10.00;99.90;;;;;;5072103;28;20127;-81
2021/12/15 06:16:05;;;;;;;65.47;22.77;;;10.10;99.90;;;;;;5039643;28;20523;-81
2021/12/15 06:18:32;;;;;;;58.33;23.33;;;10.10;99.90;;;;;;5069780;28;20408;-81
2021/12/15 06:20:58;;;;;;;62.05;23.92;;;10.10;99.90;;;;;;5055239;28;20068;-81
2021/12/15 06:23:24;;;;;;;57.00;23.30;;;10.10;99.90;;;;;;5055391;28;20060;-81
2021/12/15 06:25:57;;;;;;;56.28;22.73;;;10.10;99.90;;;;;;5072467;28;20055;-81
2021/12/15 06:28:24;;;;;;;60.97;22.60;;;10.10;99.90;;;;;;5071656;28;20036;-81
2021/12/15 06:30:50;;;;;;;51.05;23.42;;;10.10;99.90;;;;;;5071584;28;20108;-81
2021/12/15 06:33:17;;;;;;;59.83;23.90;;;10.10;99.90;;;;;;5054762;28;20035;-81
2021/12/15 06:35:52;;;;;;;65.22;23.42;;;10.10;99.90;;;;;;5071815;28;20044;-81
2021/12/15 06:38:20;;;;;;;61.85;23.92;;;10.10;99.90;;;;;;5066876;28;20032;-81
2021/12/15 06:40:46;;;;;;;54.10;22.50;;;10.10;99.90;;;;;;5071942;28;20115;-81
2021/12/15 06:43:11;;;;;;;55.40;22.95;;;10.10;99.90;;;;;;5071305;28;20132;-81
2021/12/15 06:45:50;;;;;;;55.78;22.08;;;10.10;99.90;;;;;;5054668;28;20036;-81
2021/12/15 06:59:13;;;;;;;48.95;20.90;;;10.10;99.90;;;;;;5071045;28;20051;-81
2021/12/15 07:01:39;;;;;;;54.28;23.30;;;10.10;99.90;;;;;;5054716;28;21149;-81
2021/12/15 07:04:05;;;;;;;48.45;21.67;;;10.10;99.90;;;;;;5037588;28;20420;-81
2021/12/15 07:06:31;;;;;;;54.97;22.65;;;10.10;99.90;;;;;;5070681;28;20045;-81
2021/12/15 07:08:56;;;;;;;48.08;20.65;;;10.10;99.90;;;;;;5071238;28;20102;-81
2021/12/15 07:11:22;;;;;;;49.50;20.67;;;10.40;99.90;;;;;;5070596;28;20043;-81
2021/12/15 07:13:49;;;;;;;48.15;20.88;;;10.10;99.90;;;;;;5053667;28;20484;-81
2021/12/15 07:16:14;;;;;;;;;;;10.10;99.90;;;;;;5071167;28;20411;-81
2021/12/15 07:19:07;;;;;;;51.47;21.00;;;10.10;99.90;;;;;;5070284;28;19920;-80
2021/12/15 07:21:36;;;;;;;49.20;20.42;;;10.10;99.90;;;;;;5070450;28;20052;-81
2021/12/15 07:24:03;;;;;;;47.97;21.13;;;10.10;99.90;;;;;;5070475;28;20036;-81
2021/12/15 07:26:28;;;;;;;;;;;10.10;99.90;;;;;;5037541;28;20048;-81
2021/12/15 07:28:54;;;;;;;49.67;19.85;;;10.10;99.90;;;;;;5070714;28;19965;-81
2021/12/15 07:31:20;;;;;;;46.03;21.08;;;10.10;99.90;;;;;;5053477;28;20681;-84
2021/12/15 07:33:48;;;;;;;44.00;20.05;;;10.10;99.90;;;;;;5071719;28;20048;-82
2021/12/15 07:36:16;;;;;;;51.72;21.52;;;10.10;99.90;;;;;;5054542;28;20051;-83
2021/12/15 07:38:42;;;;;;;53.42;19.85;;;10.10;99.90;;;;;;5054433;28;20032;-82
2021/12/15 07:41:41;;;;;;;46.85;20.27;;;10.10;99.90;;;;;;5071464;28;20033;-82
2021/12/15 07:44:04;;;;;;;44.13;20.05;;;10.10;99.90;;;;;;5070805;28;20044;-83
2021/12/15 07:46:30;;;;;;;53.13;21.13;;;10.10;99.90;;;;;;5070556;28;20125;-82
2021/12/15 07:48:56;;;;;;;45.67;19.13;;;10.10;99.90;;;;;;5068755;28;20123;-83
2021/12/15 07:51:23;;;;;;;47.92;19.48;;;10.20;99.90;;;;;;5068306;28;20044;-83
2021/12/15 07:53:48;;;;;;;41.42;18.27;;;10.20;99.90;;;;;;5068643;28;20032;-83
2021/12/15 07:56:18;;;;;;;40.63;19.00;;;10.10;99.90;;;;;;5052612;28;20028;-84
2021/12/15 07:58:44;;;;;;;43.42;18.90;;;10.10;99.90;;;;;;5053151;28;20040;-81
2021/12/15 08:01:10;;;;;;;;;;;10.10;99.90;;;;;;5070323;28;20029;-81
2021/12/15 08:03:39;;;;;;;43.80;17.35;;;10.10;99.90;;;;;;5052671;28;20447;-81
2021/12/15 08:06:05;;;;;;;42.50;17.25;;;10.10;99.90;;;;;;5069947;28;20123;-82
2021/12/15 08:08:31;;;;;;;35.33;16.48;;;10.20;99.90;;;;;;5069608;28;20048;-82
2021/12/15 08:10:58;;;;;;;31.15;16.02;;;10.10;99.90;;;;;;5069898;28;20396;-82
2021/12/15 08:13:30;;;;;;;34.55;14.45;;;10.10;99.90;;;;;;5068750;28;20057;-82
2021/12/15 08:15:57;;;;;;;32.33;14.00;;;10.10;99.90;;;;;;5048696;28;20219;-83
2021/12/15 08:18:24;;;;;;;33.83;14.15;;;10.10;99.90;;;;;;5069773;28;20033;-82
2021/12/15 08:20:50;;;;;;;28.95;13.68;;;10.10;99.90;;;;;;5070510;28;20116;-82
2021/12/15 08:23:18;;;;;;;30.15;14.07;;;10.10;99.90;;;;;;5070383;28;20040;-82
2021/12/15 08:25:44;;;;;;;30.17;14.35;;;10.10;99.90;;;;;;5069794;28;20176;-82
2021/12/15 08:28:10;;;;;;;32.15;14.43;;;10.10;99.90;;;;;;5070541;28;20040;-82
2021/12/15 08:30:37;;;;;;;30.98;14.90;;;10.10;99.90;;;;;;5053905;28;20400;-82
2021/12/15 08:33:04;;;;;;;;;;;10.10;99.90;;;;;;5070565;28;20048;-82
2021/12/15 08:35:38;;;;;;;33.40;14.35;;;10.10;99.90;;;;;;5067363;28;19923;-82
2021/12/15 08:38:05;;;;;;;32.95;14.40;;;10.20;99.90;;;;;;5070030;28;20036;-82
2021/12/15 08:40:31;;;;;;;32.60;14.50;;;10.10;99.90;;;;;;5069676;28;20047;-81
2021/12/15 08:42:59;;;;;;;40.80;15.50;;;10.10;99.90;;;;;;5053025;28;20040;-83
2021/12/15 08:45:26;;;;;;;33.03;15.32;;;10.20;99.90;;;;;;5036422;28;20079;-81
2021/12/15 08:47:52;;;;;;;32.58;14.48;;;10.20;99.90;;;;;;5067680;28;20059;-82
2021/12/15 08:50:21;;;;;;;34.83;14.20;;;10.20;99.90;;;;;;5036764;28;20074;-83
2021/12/15 08:52:47;;;;;;;31.85;14.45;;;10.20;99.90;;;;;;5069600;28;20059;-82
2021/12/15 08:55:13;;;;;;;33.58;14.60;;;10.20;99.90;;;;;;5053138;28;20036;-82
2021/12/15 08:57:46;;;;;;;30.77;14.02;;;10.20;99.90;;;;;;5053227;28;20120;-83
2021/12/15 09:00:12;;;;;;;30.05;13.45;;;10.20;99.90;;;;;;5053225;28;20035;-83
2021/12/15 09:02:38;;;;;;;36.03;14.35;;;10.20;99.90;;;;;;5053115;28;20036;-83
2021/12/15 09:05:05;;;;;;;34.88;14.23;;;10.20;99.90;;;;;;5069837;28;20044;-83
2021/12/15 09:07:30;;;;;;;31.50;14.55;;;10.30;99.90;;;;;;5069809;28;20044;-82
2021/12/15 09:09:56;;;;;;;31.77;13.32;;;10.20;99.90;;;;;;5069806;28;20449;-82
2021/12/15 09:12:23;;;;;;;33.80;14.05;;;10.30;99.90;;;;;;5053118;28;20045;-82
2021/12/15 09:14:48;;;;;;;36.67;14.00;;;10.30;99.90;;;;;;5073247;28;20056;-82
2021/12/15 09:17:15;;;;;;;35.03;14.35;;;10.40;99.90;;;;;;5040259;28;20097;-83
2021/12/15 09:19:40;;;;;;;32.90;14.50;;;10.30;99.90;;;;;;5073752;28;20119;-83
2021/12/15 09:22:07;;;;;;;32.35;13.57;;;10.40;99.90;;;;;;5073865;28;20072;-82
2021/12/15 09:24:33;;;;;;;;;;;10.40;99.90;;;;;;5056492;28;20037;-83
2021/12/15 09:26:59;;;;;;;27.25;11.75;;;10.50;99.90;;;;;;5073423;28;19965;-82
2021/12/15 09:29:25;;;;;;;25.38;12.25;;;10.70;99.90;;;;;;5056891;28;20103;-82
2021/12/15 09:31:53;;;;;;;28.23;11.90;;;11.00;99.90;;;;;;5056816;28;20032;-82
2021/12/15 09:34:19;;;;;;;23.50;11.75;;;11.50;99.90;;;;;;5056376;28;20036;-81
2021/12/15 09:36:47;;;;;;;;;;;11.90;99.90;;;;;;5072485;28;20043;-83
2021/12/15 09:39:15;;;;;;;23.55;12.23;;;12.00;99.90;;;;;;5073711;28;19963;-83
2021/12/15 09:41:42;;;;;;;23.23;11.45;;;11.90;99.90;;;;;;5055983;28;20036;-82
2021/12/15 09:44:12;;;;;;;25.20;11.55;;;11.70;99.90;;;;;;5056520;28;20036;-82
2021/12/15 09:47:09;;;;;;;25.02;11.07;;;11.60;99.90;;;;;;5072777;28;20040;-82
2021/12/15 10:03:04;;;;;;;18.35;8.95;;;12.10;99.90;;;;;;5057511;28;20120;-82
2021/12/15 10:19:28;;;;;;;24.83;11.48;;;11.70;99.90;;;;;;5072077;28;20275;-82
2021/12/15 10:21:59;;;;;;;22.25;10.98;;;11.40;99.90;;;;;;5088521;28;20048;-82
2021/12/15 10:24:31;;;;;;;21.73;9.98;;;11.30;99.90;;;;;;5052068;28;20044;-82
2021/12/15 10:27:00;;;;;;;20.60;10.65;;;11.20;99.90;;;;;;5072114;28;20507;-83
2021/12/15 10:29:26;;;;;;;21.52;10.13;;;11.10;99.90;;;;;;5055550;28;20098;-83
2021/12/15 10:32:01;;;;;;;25.10;10.65;;;11.10;99.90;;;;;;5055598;28;20032;-82
2021/12/15 10:34:27;;;;;;;21.27;10.57;;;11.00;99.90;;;;;;5053210;28;20500;-82
2021/12/15 10:36:53;;;;;;;20.08;9.95;;;11.00;99.90;;;;;;5038464;28;20094;-82
2021/12/15 10:39:21;;;;;;;22.45;10.13;;;11.00;99.90;;;;;;5039269;28;20041;-83
2021/12/15 10:41:48;;;;;;;24.45;11.02;;;11.00;99.90;;;;;;5072386;28;20556;-83
2021/12/15 10:44:24;;;;;;;22.30;9.73;;;10.90;99.90;;;;;;5055556;28;20040;-82
2021/12/15 10:47:03;;;;;;;21.55;8.93;;;10.90;99.90;;;;;;5071834;28;20036;-82
2021/12/15 10:49:33;;;;;;;19.20;8.98;;;11.00;99.90;;;;;;5072748;28;20443;-81
2021/12/15 10:52:08;;;;;;;19.38;8.95;;;10.90;99.90;;;;;;5069137;28;20492;-82
2021/12/15 10:54:49;;;;;;;20.63;9.75;;;11.00;99.90;;;;;;5070772;28;20828;-83
2021/12/15 10:57:27;;;;;;;22.35;9.30;;;11.00;99.90;;;;;;5053726;28;20064;-83
2021/12/15 10:59:55;;;;;;;23.60;9.95;;;10.90;99.90;;;;;;5053030;28;20043;-83
2021/12/15 11:02:32;;;;;;;18.63;9.60;;;10.90;99.90;;;;;;5055184;28;20032;-83
2021/12/15 11:05:05;;;;;;;19.45;9.50;;;10.90;99.90;;;;;;5069643;28;20496;-83
2021/12/15 11:07:53;;;;;;;19.20;9.27;;;10.90;99.90;;;;;;5070143;28;20048;-83
2021/12/15 11:10:25;;;;;;;19.48;9.57;;;11.00;99.90;;;;;;5069872;28;20036;-84
2021/12/15 11:12:59;;;;;;;16.60;8.15;;;10.90;99.90;;;;;;5070052;28;20052;-83
2021/12/15 11:15:26;;;;;;;20.10;9.20;;;10.90;99.90;;;;;;5068574;28;20041;-83
2021/12/15 11:17:53;;;;;;;19.15;9.35;;;11.00;99.90;;;;;;5069944;28;20831;-82
2021/12/15 11:20:29;;;;;;;16.27;9.48;;;11.00;99.90;;;;;;5070381;28;20068;-83
2021/12/15 11:23:12;;;;;;;16.13;8.43;;;11.00;99.90;;;;;;5053407;28;20123;-83
2021/12/15 11:25:40;;;;;;;18.00;8.23;;;11.00;99.90;;;;;;5053986;28;20731;-83
2021/12/15 11:28:20;;;;;;;18.08;9.00;;;11.10;99.90;;;;;;5070830;28;20086;-83
2021/12/15 11:30:58;;;;;;;20.80;8.63;;;11.10;99.90;;;;;;5069591;28;20037;-83
2021/12/15 11:33:28;;;;;;;14.18;7.80;;;11.10;99.90;;;;;;5068863;28;20071;-83
2021/12/15 11:36:00;;;;;;;15.02;7.93;;;11.10;99.90;;;;;;5070047;28;20045;-83
2021/12/15 11:38:31;;;;;;;21.90;9.07;;;11.10;99.90;;;;;;5054286;28;20376;-83
2021/12/15 11:40:57;;;;;;;19.48;8.48;;;11.10;99.90;;;;;;5053602;28;20037;-83
2021/12/15 11:43:38;;;;;;;18.47;8.53;;;11.10;99.90;;;;;;5052818;28;20109;-83
2021/12/15 11:46:15;;;;;;;13.93;7.80;;;11.20;99.90;;;;;;5069931;28;20041;-83
2021/12/15 11:48:41;;;;;;;15.23;7.65;;;11.50;99.90;;;;;;5069377;28;20071;-83
2021/12/15 11:51:08;;;;;;;14.52;8.07;;;11.70;99.90;;;;;;5053310;28;20456;-83
2021/12/15 11:53:44;;;;;;;18.17;7.38;;;11.70;99.90;;;;;;5069456;28;20039;-83
2021/12/15 11:56:18;;;;;;;16.03;6.53;;;11.60;99.90;;;;;;5070367;28;20040;-83
2021/12/15 11:58:45;;;;;;;13.75;6.38;;;11.50;99.90;;;;;;5052718;28;20414;-83
2021/12/15 12:01:38;;;;;;;10.52;4.72;;;11.40;99.90;;;;;;5070479;28;20591;-83
2021/12/15 12:04:20;;;;;;;10.52;5.10;;;11.40;99.90;;;;;;5066507;28;20118;-83
2021/12/15 12:06:49;;;;;;;9.52;4.32;;;11.40;99.90;;;;;;5067558;28;20082;-83
2021/12/15 12:09:18;;;;;;;10.95;4.22;;;11.40;99.90;;;;;;5054139;28;20480;-83
2021/12/15 12:11:50;;;;;;;7.30;3.40;;;11.40;99.90;;;;;;5068966;28;20051;-82
2021/12/15 12:14:29;;;;;;;10.73;3.72;;;11.40;99.90;;;;;;5068251;28;20056;-83
2021/12/15 12:16:56;;;;;;;6.82;3.28;;;11.50;99.90;;;;;;5052812;28;20045;-83
2021/12/15 12:19:21;;;;;;;10.05;3.38;;;11.40;99.90;;;;;;5053080;28;20094;-83
2021/12/15 12:21:47;;;;;;;9.40;3.28;;;11.40;99.90;;;;;;5036013;28;20044;-83
2021/12/15 12:24:17;;;;;;;10.02;3.25;;;11.50;99.90;;;;;;5052736;28;20044;-84
2021/12/15 12:26:45;;;;;;;12.40;3.15;;;11.50;99.90;;;;;;5053411;28;20044;-84
2021/12/15 12:29:11;;;;;;;8.80;3.58;;;11.60;99.90;;;;;;5070096;28;20044;-84
2021/12/15 12:31:37;;;;;;;7.90;3.60;;;11.70;99.90;;;;;;5036671;28;20117;-84
2021/12/15 12:34:03;;;;;;;12.85;3.83;;;11.80;99.90;;;;;;5053152;28;20032;-87
2021/12/15 12:36:31;;;;;;;10.15;3.63;;;11.80;99.90;;;;;;5070580;28;20503;-86
2021/12/15 12:39:08;;;;;;;13.90;3.60;;;11.60;99.90;;;;;;5068205;28;20037;-85
2021/12/15 12:41:45;;;;;;;8.27;3.17;;;11.50;99.90;;;;;;5066759;28;20112;-83
2021/12/15 12:44:13;;;;;;;6.30;3.30;;;11.40;99.90;;;;;;5069416;28;20040;-83
2021/12/15 12:46:48;;;;;;;12.85;3.33;;;11.40;99.90;;;;;;5054066;28;20286;-84
2021/12/15 13:00:33;;;;;;;8.85;2.50;;;11.40;99.90;;;;;;5070977;28;20056;-84
2021/12/15 13:03:02;;;;;;;6.22;2.88;;;11.20;99.90;;;;;;5052742;28;20441;-84
2021/12/15 13:05:35;;;;;;;6.40;2.35;;;11.20;99.90;;;;;;5069040;28;20433;-83
2021/12/15 13:08:29;;;;;;;8.43;2.47;;;11.20;99.90;;;;;;5069009;28;20037;-83
2021/12/15 13:11:07;;;;;;;5.45;2.50;;;11.20;99.90;;;;;;5067478;28;20098;-84
2021/12/15 13:13:35;;;;;;;5.32;2.03;;;11.20;99.90;;;;;;5051406;28;20055;-83
2021/12/15 13:16:09;;;;;;;7.18;2.53;;;11.20;99.90;;;;;;5070072;28;20040;-84
2021/12/15 13:18:49;;;;;;;4.05;1.70;;;11.20;99.90;;;;;;5053808;28;20098;-84
2021/12/15 13:21:18;;;;;;;3.53;1.70;;;11.20;99.90;;;;;;5052702;28;20060;-84
2021/12/15 13:23:50;;;;;;;6.47;1.90;;;11.20;99.90;;;;;;5071574;28;20040;-87
2021/12/15 13:29:50;;;;;;;5.00;1.70;;;11.20;99.90;;;;;;5069367;28;20119;-85
2021/12/15 13:32:16;;;;;;;4.60;1.70;;;11.00;99.90;;;;;;5071627;28;20119;-87
2021/12/15 13:34:46;;;;;;;4.32;1.60;;;11.00;99.90;;;;;;5036179;28;20047;-87
2021/12/15 13:37:50;;;;;;;4.40;1.27;;;11.00;99.90;;;;;;5053667;28;20028;-87
2021/12/15 13:40:48;;;;;;;7.53;1.52;;;11.00;99.90;;;;;;5051763;28;20086;-88
2021/12/15 13:43:32;;;;;;;4.97;1.70;;;11.00;99.90;;;;;;5052142;28;20099;-88
2021/12/15 13:45:58;;;;;;;4.95;1.75;;;11.00;99.90;;;;;;5069110;28;20040;-89
2021/12/15 13:48:56;;;;;;;7.07;1.70;;;10.90;99.90;;;;;;5071341;28;20040;-87
2021/12/15 13:52:07;;;;;;;5.00;1.63;;;11.00;99.90;;;;;;5068680;28;20140;-87
2021/12/15 13:54:33;;;;;;;3.53;1.52;;;10.90;99.90;;;;;;4997064;28;20092;-85
2021/12/15 13:57:13;;;;;;;3.75;1.35;;;10.90;99.90;;;;;;5095694;28;20424;-89
2021/12/15 14:03:31;;;;;;;3.45;1.50;;;10.60;99.90;;;;;;5073817;28;20380;-85
2021/12/15 14:06:03;;;;;;;6.45;1.58;;;10.40;99.90;;;;;;5072945;28;20033;-85
2021/12/15 14:08:41;;;;;;;5.28;1.70;;;10.40;99.90;;;;;;5055824;28;20037;-84
2021/12/15 14:11:20;;;;;;;4.50;1.83;;;10.30;99.90;;;;;;5070175;28;20037;-84
2021/12/15 14:14:00;;;;;;;6.90;1.83;;;10.10;99.90;;;;;;5069997;28;20076;-85
2021/12/15 14:16:41;;;;;;;4.30;1.70;;;10.10;99.90;;;;;;5072120;28;20040;-84
2021/12/15 14:19:14;;;;;;;3.90;1.60;;;10.00;99.90;;;;;;5070090;28;20117;-84